createdAt,value
2017-06-20T00:00:09.443Z,17.21
2017-06-20T00:00:22.916Z,17.27
2017-06-20T00:00:35.806Z,17.2
2017-06-20T00:00:49.540Z,17.22
2017-06-20T00:01:02.968Z,17.22
2017-06-20T00:01:15.931Z,17.15
2017-06-20T00:01:29.365Z,17.15
2017-06-20T00:01:42.800Z,17.24
2017-06-20T00:01:56.298Z,17.21
2017-06-20T00:02:08.657Z,17.27
2017-06-20T00:02:22.081Z,17.28
2017-06-20T00:02:35.496Z,17.27
2017-06-20T00:02:48.438Z,17.25
2017-06-20T00:03:01.874Z,17.27
2017-06-20T00:03:15.249Z,17.27
2017-06-20T00:03:28.647Z,17.35
2017-06-20T00:03:41.529Z,17.31
2017-06-20T00:03:54.446Z,17.22
2017-06-20T00:04:07.827Z,17.24
2017-06-20T00:04:21.256Z,17.24
2017-06-20T00:04:34.147Z,17.22
2017-06-20T00:04:47.031Z,17.25
2017-06-20T00:05:00.483Z,17.27
2017-06-20T00:05:12.772Z,17.31
2017-06-20T00:05:26.169Z,17.28
2017-06-20T00:05:39.072Z,17.25
2017-06-20T00:05:52.501Z,17.25
2017-06-20T00:06:05.455Z,17.25
2017-06-20T00:06:18.863Z,17.28
2017-06-20T00:06:32.252Z,17.21
2017-06-20T00:06:45.731Z,17.3
2017-06-20T00:06:58.644Z,17.22
2017-06-20T00:07:12.077Z,17.25
2017-06-20T00:07:25.445Z,17.27
2017-06-20T00:07:37.851Z,17.28
2017-06-20T00:07:51.277Z,17.25
2017-06-20T00:08:04.727Z,17.31
2017-06-20T00:08:17.610Z,17.35
2017-06-20T00:08:30.972Z,17.35
2017-06-20T00:08:43.366Z,17.3
2017-06-20T00:08:57.170Z,17.28
2017-06-20T00:09:10.603Z,17.25
2017-06-20T00:09:23.991Z,17.38
2017-06-20T00:09:36.872Z,17.39
2017-06-20T00:09:49.851Z,17.4
2017-06-20T00:10:02.216Z,17.38
2017-06-20T00:10:15.642Z,17.36
2017-06-20T00:10:29.110Z,17.32
2017-06-20T00:10:42.014Z,17.39
2017-06-20T00:10:53.976Z,17.3
2017-06-20T00:11:06.841Z,17.39
2017-06-20T00:11:20.284Z,17.42
2017-06-20T00:11:33.683Z,17.38
2017-06-20T00:11:46.601Z,17.38
2017-06-20T00:12:00.001Z,17.31
2017-06-20T00:12:13.395Z,17.36
2017-06-20T00:12:26.316Z,17.38
2017-06-20T00:12:39.279Z,17.36
2017-06-20T00:12:52.718Z,17.36
2017-06-20T00:13:06.100Z,17.35
2017-06-20T00:13:19.009Z,17.38
2017-06-20T00:13:32.504Z,17.32
2017-06-20T00:13:45.929Z,17.25
2017-06-20T00:13:58.866Z,17.25
2017-06-20T00:14:11.742Z,17.28
2017-06-20T00:14:25.164Z,17.27
2017-06-20T00:14:38.487Z,17.3
2017-06-20T00:14:51.927Z,17.24
2017-06-20T00:15:05.316Z,17.22
2017-06-20T00:15:18.746Z,17.25
2017-06-20T00:15:32.179Z,17.32
2017-06-20T00:15:45.143Z,17.35
2017-06-20T00:15:58.868Z,17.31
2017-06-20T00:16:11.748Z,17.28
2017-06-20T00:16:25.184Z,17.27
2017-06-20T00:16:38.562Z,17.21
2017-06-20T00:16:51.945Z,17.25
2017-06-20T00:17:05.352Z,17.13
2017-06-20T00:17:18.764Z,17.28
2017-06-20T00:17:32.161Z,17.2
2017-06-20T00:17:45.648Z,17.28
2017-06-20T00:17:58.572Z,17.27
2017-06-20T00:18:11.939Z,17.2
2017-06-20T00:18:25.362Z,17.21
2017-06-20T00:18:38.815Z,17.24
2017-06-20T00:18:52.256Z,17.3
2017-06-20T00:19:05.151Z,17.28
2017-06-20T00:19:18.053Z,17.27
2017-06-20T00:19:31.424Z,17.28
2017-06-20T00:19:44.820Z,17.25
2017-06-20T00:19:57.756Z,17.18
2017-06-20T00:20:12.611Z,17.15
2017-06-20T00:20:25.543Z,17.27
2017-06-20T00:20:38.505Z,17.27
2017-06-20T00:20:51.926Z,17.28
2017-06-20T00:21:04.814Z,17.25
2017-06-20T00:21:17.662Z,17.22
2017-06-20T00:21:30.605Z,17.27
2017-06-20T00:21:43.531Z,17.22
2017-06-20T00:21:56.904Z,17.21
2017-06-20T00:22:09.858Z,17.27
2017-06-20T00:22:22.748Z,17.25
2017-06-20T00:22:36.160Z,17.22
2017-06-20T00:22:49.586Z,17.2
2017-06-20T00:23:02.507Z,17.18
2017-06-20T00:23:15.931Z,17.27
2017-06-20T00:23:29.310Z,17.17
2017-06-20T00:23:42.688Z,17.2
2017-06-20T00:23:56.084Z,17.21
2017-06-20T00:24:09.509Z,17.25
2017-06-20T00:24:22.387Z,17.24
2017-06-20T00:24:35.805Z,17.25
2017-06-20T00:24:49.238Z,17.21
2017-06-20T00:25:02.118Z,17.24
2017-06-20T00:25:15.530Z,17.27
2017-06-20T00:25:28.425Z,17.2
2017-06-20T00:25:41.904Z,17.27
2017-06-20T00:25:55.300Z,17.27
2017-06-20T00:26:08.687Z,17.25
2017-06-20T00:26:22.112Z,17.24
2017-06-20T00:26:34.505Z,17.18
2017-06-20T00:26:47.868Z,17.21
2017-06-20T00:27:01.230Z,17.21
2017-06-20T00:27:14.632Z,17.2
2017-06-20T00:27:28.033Z,17.2
2017-06-20T00:27:40.929Z,17.27
2017-06-20T00:27:54.356Z,17.24
2017-06-20T00:28:07.741Z,17.18
2017-06-20T00:28:20.643Z,17.25
2017-06-20T00:28:32.970Z,17.27
2017-06-20T00:28:45.831Z,17.18
2017-06-20T00:28:59.241Z,17.18
2017-06-20T00:29:12.608Z,17.15
2017-06-20T00:29:26.093Z,17.18
2017-06-20T00:29:38.470Z,17.22
2017-06-20T00:29:51.929Z,17.24
2017-06-20T00:30:05.403Z,17.27
2017-06-20T00:30:18.300Z,17.21
2017-06-20T00:30:31.265Z,17.3
2017-06-20T00:30:44.673Z,17.24
2017-06-20T00:30:58.369Z,17.25
2017-06-20T00:31:11.802Z,17.2
2017-06-20T00:31:25.193Z,17.18
2017-06-20T00:31:38.648Z,17.24
2017-06-20T00:31:52.056Z,17.28
2017-06-20T00:32:05.493Z,17.15
2017-06-20T00:32:19.005Z,17.17
2017-06-20T00:32:32.469Z,17.2
2017-06-20T00:32:45.857Z,17.2
2017-06-20T00:32:59.288Z,17.24
2017-06-20T00:33:12.706Z,17.28
2017-06-20T00:33:26.082Z,17.28
2017-06-20T00:33:39.019Z,17.25
2017-06-20T00:33:52.455Z,17.3
2017-06-20T00:34:05.336Z,17.25
2017-06-20T00:34:18.734Z,17.28
2017-06-20T00:34:32.175Z,17.3
2017-06-20T00:34:45.063Z,17.3
2017-06-20T00:34:58.483Z,17.3
2017-06-20T00:35:11.914Z,17.25
2017-06-20T00:35:25.322Z,17.24
2017-06-20T00:35:38.762Z,17.24
2017-06-20T00:35:52.177Z,17.25
2017-06-20T00:36:05.572Z,17.27
2017-06-20T00:36:18.535Z,17.27
2017-06-20T00:36:31.994Z,17.28
2017-06-20T00:36:44.414Z,17.3
2017-06-20T00:36:57.853Z,17.24
2017-06-20T00:37:10.748Z,17.28
2017-06-20T00:37:24.213Z,17.3
2017-06-20T00:37:37.660Z,17.27
2017-06-20T00:37:51.090Z,17.24
2017-06-20T00:38:04.524Z,17.32
2017-06-20T00:38:18.001Z,17.24
2017-06-20T00:38:30.895Z,17.24
2017-06-20T00:38:44.320Z,17.28
2017-06-20T00:38:57.776Z,17.28
2017-06-20T00:39:10.699Z,17.31
2017-06-20T00:39:24.142Z,17.27
2017-06-20T00:39:37.072Z,17.27
2017-06-20T00:39:50.459Z,17.22
2017-06-20T00:40:03.429Z,17.27
2017-06-20T00:40:16.782Z,17.22
2017-06-20T00:40:29.694Z,17.25
2017-06-20T00:40:43.051Z,17.21
2017-06-20T00:40:56.465Z,17.17
2017-06-20T00:41:09.344Z,17.3
2017-06-20T00:41:22.793Z,17.2
2017-06-20T00:41:35.668Z,17.28
2017-06-20T00:41:49.118Z,17.18
2017-06-20T00:42:02.592Z,17.22
2017-06-20T00:42:16.009Z,17.18
2017-06-20T00:42:28.874Z,17.18
2017-06-20T00:42:41.808Z,17.22
2017-06-20T00:42:55.226Z,17.21
2017-06-20T00:43:08.632Z,17.13
2017-06-20T00:43:22.152Z,17.25
2017-06-20T00:43:35.566Z,17.27
2017-06-20T00:43:48.472Z,17.22
2017-06-20T00:44:01.862Z,17.24
2017-06-20T00:44:15.236Z,17.25
2017-06-20T00:44:28.675Z,17.24
2017-06-20T00:44:41.096Z,17.22
2017-06-20T00:44:54.438Z,17.28
2017-06-20T00:45:07.877Z,17.24
2017-06-20T00:45:21.317Z,17.18
2017-06-20T00:45:34.259Z,17.2
2017-06-20T00:45:47.724Z,17.22
2017-06-20T00:46:00.645Z,17.2
2017-06-20T00:46:14.141Z,17.2
2017-06-20T00:46:26.465Z,17.25
2017-06-20T00:46:39.362Z,17.24
2017-06-20T00:46:51.658Z,17.24
2017-06-20T00:47:05.111Z,17.24
2017-06-20T00:47:18.613Z,17.24
2017-06-20T00:47:32.062Z,17.27
2017-06-20T00:47:45.517Z,17.21
2017-06-20T00:47:58.991Z,17.18
2017-06-20T00:48:12.408Z,17.28
2017-06-20T00:48:25.812Z,17.22
2017-06-20T00:48:38.785Z,17.24
2017-06-20T00:48:51.754Z,17.25
2017-06-20T00:49:04.150Z,17.24
2017-06-20T00:49:17.548Z,17.2
2017-06-20T00:49:30.955Z,17.31
2017-06-20T00:49:43.846Z,17.27
2017-06-20T00:49:56.736Z,17.28
2017-06-20T00:50:09.689Z,17.24
2017-06-20T00:50:23.163Z,17.18
2017-06-20T00:50:36.620Z,17.22
2017-06-20T00:50:49.556Z,17.27
2017-06-20T00:51:02.955Z,17.25
2017-06-20T00:51:15.801Z,17.22
2017-06-20T00:51:29.273Z,17.31
2017-06-20T00:51:42.147Z,17.24
2017-06-20T00:51:55.540Z,17.3
2017-06-20T00:52:08.966Z,17.28
2017-06-20T00:52:22.384Z,17.2
2017-06-20T00:52:35.905Z,17.21
2017-06-20T00:52:49.371Z,17.25
2017-06-20T00:53:02.899Z,17.27
2017-06-20T00:53:16.325Z,17.22
2017-06-20T00:53:29.775Z,17.13
2017-06-20T00:53:42.224Z,17.28
2017-06-20T00:53:55.667Z,17.22
2017-06-20T00:54:09.117Z,17.24
2017-06-20T00:54:22.558Z,17.27
2017-06-20T00:54:35.955Z,17.2
2017-06-20T00:54:49.383Z,17.22
2017-06-20T00:55:02.268Z,17.31
2017-06-20T00:55:15.123Z,17.21
2017-06-20T00:55:28.581Z,17.27
2017-06-20T00:55:42.035Z,17.22
2017-06-20T00:55:55.461Z,17.2
2017-06-20T00:56:08.433Z,17.22
2017-06-20T00:56:21.368Z,17.24
2017-06-20T00:56:34.823Z,17.22
2017-06-20T00:56:48.363Z,17.28
2017-06-20T00:57:01.797Z,17.24
2017-06-20T00:57:14.188Z,17.22
2017-06-20T00:57:27.602Z,17.18
2017-06-20T00:57:40.516Z,17.17
2017-06-20T00:57:53.946Z,17.24
2017-06-20T00:58:07.413Z,17.17
2017-06-20T00:58:20.850Z,17.21
2017-06-20T00:58:33.821Z,17.22
2017-06-20T00:58:47.263Z,17.21
2017-06-20T00:59:00.662Z,17.21
2017-06-20T00:59:14.071Z,17.15
2017-06-20T00:59:26.937Z,17.21
2017-06-20T00:59:39.912Z,17.24
2017-06-20T00:59:53.373Z,17.22
2017-06-20T01:00:06.259Z,17.22
2017-06-20T01:00:19.110Z,17.24
2017-06-20T01:00:32.580Z,17.22
2017-06-20T01:00:45.956Z,17.24
2017-06-20T01:00:58.805Z,17.27
2017-06-20T01:01:11.935Z,17.18
2017-06-20T01:01:25.397Z,17.25
2017-06-20T01:01:38.808Z,17.21
2017-06-20T01:01:51.782Z,17.22
2017-06-20T01:02:04.167Z,17.2
2017-06-20T01:02:17.024Z,17.22
2017-06-20T01:02:29.958Z,17.24
2017-06-20T01:02:42.804Z,17.24
2017-06-20T01:02:56.274Z,17.18
2017-06-20T01:03:09.663Z,17.27
2017-06-20T01:03:23.289Z,17.2
2017-06-20T01:03:35.678Z,17.12
2017-06-20T01:03:49.051Z,17.17
2017-06-20T01:04:01.931Z,17.25
2017-06-20T01:04:15.350Z,17.24
2017-06-20T01:04:28.756Z,17.24
2017-06-20T01:04:41.690Z,17.24
2017-06-20T01:04:55.135Z,17.2
2017-06-20T01:05:08.534Z,17.21
2017-06-20T01:05:22.002Z,17.17
2017-06-20T01:05:35.434Z,17.24
2017-06-20T01:05:48.920Z,17.25
2017-06-20T01:06:02.369Z,17.21
2017-06-20T01:06:15.774Z,17.24
2017-06-20T01:06:28.165Z,17.2
2017-06-20T01:06:40.514Z,17.24
2017-06-20T01:06:53.964Z,17.2
2017-06-20T01:07:07.429Z,17.22
2017-06-20T01:07:20.873Z,17.25
2017-06-20T01:07:34.227Z,17.24
2017-06-20T01:07:47.675Z,17.24
2017-06-20T01:08:01.089Z,17.17
2017-06-20T01:08:14.534Z,17.2
2017-06-20T01:08:28.002Z,17.18
2017-06-20T01:08:40.952Z,17.21
2017-06-20T01:08:54.368Z,17.2
2017-06-20T01:09:07.244Z,17.28
2017-06-20T01:09:20.126Z,17.25
2017-06-20T01:09:33.024Z,17.25
2017-06-20T01:09:46.498Z,17.25
2017-06-20T01:09:58.911Z,17.24
2017-06-20T01:10:12.305Z,17.2
2017-06-20T01:10:25.773Z,17.22
2017-06-20T01:10:39.183Z,17.24
2017-06-20T01:10:52.116Z,17.24
2017-06-20T01:11:04.952Z,17.22
2017-06-20T01:11:18.384Z,17.25
2017-06-20T01:11:31.781Z,17.27
2017-06-20T01:11:45.174Z,17.25
2017-06-20T01:11:58.625Z,17.27
2017-06-20T01:12:12.023Z,17.27
2017-06-20T01:12:25.424Z,17.24
2017-06-20T01:12:38.522Z,17.25
2017-06-20T01:12:51.892Z,17.24
2017-06-20T01:13:04.804Z,17.22
2017-06-20T01:13:18.171Z,17.25
2017-06-20T01:13:31.304Z,17.24
2017-06-20T01:13:44.710Z,17.22
2017-06-20T01:13:58.141Z,17.22
2017-06-20T01:14:10.478Z,17.2
2017-06-20T01:14:22.794Z,17.22
2017-06-20T01:14:34.656Z,17.24
2017-06-20T01:14:48.087Z,17.2
2017-06-20T01:15:01.527Z,17.24
2017-06-20T01:15:14.934Z,17.24
2017-06-20T01:15:27.839Z,17.2
2017-06-20T01:15:40.723Z,17.24
2017-06-20T01:15:54.126Z,17.25
2017-06-20T01:16:07.533Z,17.27
2017-06-20T01:16:20.680Z,17.24
2017-06-20T01:16:34.134Z,17.18
2017-06-20T01:16:47.000Z,17.22
2017-06-20T01:17:00.454Z,17.24
2017-06-20T01:17:13.284Z,17.18
2017-06-20T01:17:26.677Z,17.24
2017-06-20T01:17:38.525Z,17.22
2017-06-20T01:17:51.956Z,17.21
2017-06-20T01:18:04.868Z,17.2
2017-06-20T01:18:18.001Z,17.17
2017-06-20T01:18:30.902Z,17.18
2017-06-20T01:18:43.845Z,17.2
2017-06-20T01:18:57.313Z,17.22
2017-06-20T01:19:09.638Z,17.22
2017-06-20T01:19:22.989Z,17.24
2017-06-20T01:19:36.401Z,17.18
2017-06-20T01:19:49.799Z,17.17
2017-06-20T01:20:02.772Z,17.18
2017-06-20T01:20:16.192Z,17.22
2017-06-20T01:20:29.631Z,17.25
2017-06-20T01:20:43.114Z,17.22
2017-06-20T01:20:56.502Z,17.22
2017-06-20T01:21:08.351Z,17.2
2017-06-20T01:21:21.271Z,17.18
2017-06-20T01:21:34.138Z,17.15
2017-06-20T01:21:47.519Z,17.17
2017-06-20T01:22:00.919Z,17.17
2017-06-20T01:22:14.364Z,17.24
2017-06-20T01:22:27.756Z,17.2
2017-06-20T01:22:40.691Z,17.15
2017-06-20T01:22:54.108Z,17.18
2017-06-20T01:23:07.004Z,17.2
2017-06-20T01:23:19.977Z,17.24
2017-06-20T01:23:32.898Z,17.17
2017-06-20T01:23:45.772Z,17.18
2017-06-20T01:23:58.667Z,17.22
2017-06-20T01:24:11.591Z,17.2
2017-06-20T01:24:24.975Z,17.17
2017-06-20T01:24:37.845Z,17.18
2017-06-20T01:24:51.260Z,17.18
2017-06-20T01:25:04.708Z,17.15
2017-06-20T01:25:18.154Z,17.18
2017-06-20T01:25:31.592Z,17.06
2017-06-20T01:25:44.974Z,17.09
2017-06-20T01:25:58.412Z,17.18
2017-06-20T01:26:11.817Z,17.18
2017-06-20T01:26:25.264Z,17.12
2017-06-20T01:26:38.659Z,17.15
2017-06-20T01:26:51.562Z,17.2
2017-06-20T01:27:04.992Z,17.18
2017-06-20T01:27:18.409Z,17.12
2017-06-20T01:27:31.827Z,17.2
2017-06-20T01:27:45.237Z,17.2
2017-06-20T01:27:58.689Z,17.17
2017-06-20T01:28:11.570Z,17.13
2017-06-20T01:28:24.479Z,17.15
2017-06-20T01:28:37.840Z,17.13
2017-06-20T01:28:50.726Z,17.15
2017-06-20T01:29:03.642Z,17.17
2017-06-20T01:29:16.561Z,17.13
2017-06-20T01:29:29.973Z,17.17
2017-06-20T01:29:43.387Z,17.18
2017-06-20T01:29:56.252Z,17.17
2017-06-20T01:30:09.148Z,17.09
2017-06-20T01:30:22.585Z,17.13
2017-06-20T01:30:36.036Z,17.02
2017-06-20T01:30:47.914Z,17.13
2017-06-20T01:31:01.307Z,17.06
2017-06-20T01:31:14.719Z,17.18
2017-06-20T01:31:27.889Z,17.17
2017-06-20T01:31:40.837Z,17.15
2017-06-20T01:31:54.294Z,17.06
2017-06-20T01:32:07.193Z,17.1
2017-06-20T01:32:20.632Z,17.12
2017-06-20T01:32:34.086Z,17.05
2017-06-20T01:32:46.956Z,17.05
2017-06-20T01:33:00.339Z,17.17
2017-06-20T01:33:13.727Z,17.07
2017-06-20T01:33:27.133Z,17.06
2017-06-20T01:33:40.533Z,17.1
2017-06-20T01:33:54.005Z,17.07
2017-06-20T01:34:06.840Z,17.05
2017-06-20T01:34:20.284Z,17
2017-06-20T01:34:33.707Z,17.07
2017-06-20T01:34:47.205Z,17.06
2017-06-20T01:35:00.586Z,17.03
2017-06-20T01:35:13.515Z,17.1
2017-06-20T01:35:26.980Z,17.13
2017-06-20T01:35:39.854Z,17.03
2017-06-20T01:35:52.770Z,17.13
2017-06-20T01:36:05.638Z,17.05
2017-06-20T01:36:18.785Z,17.03
2017-06-20T01:36:32.236Z,17.02
2017-06-20T01:36:45.706Z,17.07
2017-06-20T01:36:58.586Z,17.02
2017-06-20T01:37:11.992Z,17.07
2017-06-20T01:37:25.409Z,17.05
2017-06-20T01:37:38.820Z,17.02
2017-06-20T01:37:52.229Z,17.06
2017-06-20T01:38:05.663Z,17.06
2017-06-20T01:38:19.043Z,17.09
2017-06-20T01:38:32.440Z,17.07
2017-06-20T01:38:45.399Z,17.07
2017-06-20T01:38:58.872Z,17.12
2017-06-20T01:39:11.768Z,17.05
2017-06-20T01:39:25.145Z,17.07
2017-06-20T01:39:38.580Z,17.06
2017-06-20T01:39:52.006Z,17.1
2017-06-20T01:40:04.880Z,17.05
2017-06-20T01:40:18.338Z,17.09
2017-06-20T01:40:31.731Z,17.06
2017-06-20T01:40:45.173Z,16.99
2017-06-20T01:40:58.640Z,17.03
2017-06-20T01:41:12.315Z,17.02
2017-06-20T01:41:25.743Z,17.02
2017-06-20T01:41:38.112Z,17.09
2017-06-20T01:41:51.725Z,17.03
2017-06-20T01:42:05.147Z,17.07
2017-06-20T01:42:18.590Z,17.15
2017-06-20T01:42:31.512Z,17.13
2017-06-20T01:42:44.930Z,17.07
2017-06-20T01:42:58.348Z,17.12
2017-06-20T01:43:11.741Z,17.07
2017-06-20T01:43:24.649Z,17.05
2017-06-20T01:43:38.091Z,17.03
2017-06-20T01:43:51.475Z,17.03
2017-06-20T01:44:04.914Z,17.02
2017-06-20T01:44:18.302Z,17.05
2017-06-20T01:44:31.187Z,17
2017-06-20T01:44:44.572Z,17.06
2017-06-20T01:44:57.422Z,17
2017-06-20T01:45:10.346Z,17.03
2017-06-20T01:45:23.314Z,17.03
2017-06-20T01:45:36.790Z,17.05
2017-06-20T01:45:50.252Z,17.05
2017-06-20T01:46:03.129Z,16.97
2017-06-20T01:46:16.010Z,17.06
2017-06-20T01:46:28.914Z,17.03
2017-06-20T01:46:42.574Z,17.07
2017-06-20T01:46:55.920Z,16.94
2017-06-20T01:47:09.312Z,17
2017-06-20T01:47:22.751Z,17.02
2017-06-20T01:47:36.163Z,17.03
2017-06-20T01:47:49.573Z,17
2017-06-20T01:48:03.013Z,17.03
2017-06-20T01:48:16.391Z,17
2017-06-20T01:48:29.268Z,16.99
2017-06-20T01:48:42.675Z,16.99
2017-06-20T01:48:55.541Z,16.99
2017-06-20T01:49:09.017Z,17
2017-06-20T01:49:21.866Z,17.02
2017-06-20T01:49:34.731Z,16.99
2017-06-20T01:49:48.169Z,16.99
2017-06-20T01:50:01.598Z,16.99
2017-06-20T01:50:14.995Z,17
2017-06-20T01:50:28.398Z,17.03
2017-06-20T01:50:41.842Z,16.95
2017-06-20T01:50:54.773Z,16.94
2017-06-20T01:51:08.204Z,16.94
2017-06-20T01:51:21.581Z,17
2017-06-20T01:51:35.033Z,16.99
2017-06-20T01:51:47.405Z,16.99
2017-06-20T01:52:00.789Z,17
2017-06-20T01:52:13.720Z,16.9
2017-06-20T01:52:26.592Z,16.99
2017-06-20T01:52:40.028Z,16.94
2017-06-20T01:52:52.879Z,16.97
2017-06-20T01:53:06.309Z,16.94
2017-06-20T01:53:18.691Z,16.94
2017-06-20T01:53:31.618Z,16.95
2017-06-20T01:53:44.991Z,17.03
2017-06-20T01:53:58.367Z,16.92
2017-06-20T01:54:11.268Z,16.91
2017-06-20T01:54:24.731Z,16.99
2017-06-20T01:54:38.159Z,17
2017-06-20T01:54:51.613Z,16.88
2017-06-20T01:55:04.514Z,16.9
2017-06-20T01:55:17.971Z,16.92
2017-06-20T01:55:31.409Z,16.97
2017-06-20T01:55:44.790Z,16.95
2017-06-20T01:55:57.663Z,16.95
2017-06-20T01:56:11.129Z,16.95
2017-06-20T01:56:24.554Z,16.94
2017-06-20T01:56:38.030Z,16.92
2017-06-20T01:56:51.495Z,16.97
2017-06-20T01:57:04.956Z,16.95
2017-06-20T01:57:18.358Z,16.9
2017-06-20T01:57:31.289Z,16.95
2017-06-20T01:57:44.752Z,16.92
2017-06-20T01:57:58.198Z,16.95
2017-06-20T01:58:11.152Z,16.97
2017-06-20T01:58:24.592Z,16.92
2017-06-20T01:58:38.026Z,16.87
2017-06-20T01:58:50.892Z,16.91
2017-06-20T01:59:04.295Z,16.88
2017-06-20T01:59:17.246Z,16.9
2017-06-20T01:59:30.185Z,16.91
2017-06-20T01:59:43.071Z,16.9
2017-06-20T01:59:56.524Z,16.88
2017-06-20T02:00:09.932Z,16.9
2017-06-20T02:00:23.326Z,16.85
2017-06-20T02:00:36.203Z,16.85
2017-06-20T02:00:49.907Z,16.87
2017-06-20T02:01:03.353Z,16.88
2017-06-20T02:01:16.280Z,16.91
2017-06-20T02:01:28.651Z,16.91
2017-06-20T02:01:42.090Z,16.9
2017-06-20T02:01:55.503Z,16.94
2017-06-20T02:02:08.905Z,16.85
2017-06-20T02:02:21.300Z,16.91
2017-06-20T02:02:34.719Z,16.85
2017-06-20T02:02:48.160Z,16.85
2017-06-20T02:03:01.561Z,16.91
2017-06-20T02:03:15.018Z,16.8
2017-06-20T02:03:28.451Z,16.88
2017-06-20T02:03:41.382Z,16.84
2017-06-20T02:03:54.796Z,16.85
2017-06-20T02:04:07.675Z,16.9
2017-06-20T02:04:21.072Z,16.84
2017-06-20T02:04:34.459Z,16.84
2017-06-20T02:04:47.900Z,16.87
2017-06-20T02:05:00.850Z,16.81
2017-06-20T02:05:14.294Z,16.87
2017-06-20T02:05:27.712Z,16.81
2017-06-20T02:05:41.148Z,16.85
2017-06-20T02:05:54.621Z,16.82
2017-06-20T02:06:08.100Z,16.85
2017-06-20T02:06:21.547Z,16.87
2017-06-20T02:06:34.462Z,16.76
2017-06-20T02:06:47.374Z,16.82
2017-06-20T02:07:00.806Z,16.84
2017-06-20T02:07:14.233Z,16.88
2017-06-20T02:07:27.663Z,16.9
2017-06-20T02:07:40.025Z,16.8
2017-06-20T02:07:52.964Z,16.82
2017-06-20T02:08:06.389Z,16.87
2017-06-20T02:08:19.328Z,16.82
2017-06-20T02:08:32.746Z,16.85
2017-06-20T02:08:46.085Z,16.76
2017-06-20T02:08:59.444Z,16.76
2017-06-20T02:09:12.831Z,16.7
2017-06-20T02:09:26.233Z,16.72
2017-06-20T02:09:39.124Z,16.74
2017-06-20T02:09:52.534Z,16.8
2017-06-20T02:10:05.445Z,16.84
2017-06-20T02:10:18.914Z,16.72
2017-06-20T02:10:32.379Z,16.76
2017-06-20T02:10:45.871Z,16.76
2017-06-20T02:10:59.289Z,16.72
2017-06-20T02:11:12.196Z,16.76
2017-06-20T02:11:25.616Z,16.76
2017-06-20T02:11:38.501Z,16.77
2017-06-20T02:11:51.889Z,16.81
2017-06-20T02:12:04.830Z,16.81
2017-06-20T02:12:17.715Z,16.7
2017-06-20T02:12:31.108Z,16.82
2017-06-20T02:12:44.556Z,16.7
2017-06-20T02:12:57.405Z,16.73
2017-06-20T02:13:10.860Z,16.72
2017-06-20T02:13:24.277Z,16.69
2017-06-20T02:13:37.692Z,16.8
2017-06-20T02:13:51.074Z,16.65
2017-06-20T02:14:03.472Z,16.67
2017-06-20T02:14:16.360Z,16.8
2017-06-20T02:14:29.848Z,16.67
2017-06-20T02:14:42.743Z,16.72
2017-06-20T02:14:56.167Z,16.7
2017-06-20T02:15:08.554Z,16.7
2017-06-20T02:15:21.435Z,16.74
2017-06-20T02:15:34.351Z,16.8
2017-06-20T02:15:47.761Z,16.74
2017-06-20T02:16:01.189Z,16.81
2017-06-20T02:16:14.082Z,16.72
2017-06-20T02:16:27.444Z,16.74
2017-06-20T02:16:40.302Z,16.72
2017-06-20T02:16:54.021Z,16.69
2017-06-20T02:17:05.871Z,16.8
2017-06-20T02:17:19.294Z,16.74
2017-06-20T02:17:32.806Z,16.76
2017-06-20T02:17:46.242Z,16.76
2017-06-20T02:17:59.075Z,16.73
2017-06-20T02:18:12.448Z,16.84
2017-06-20T02:18:25.811Z,16.74
2017-06-20T02:18:39.259Z,16.72
2017-06-20T02:18:52.654Z,16.7
2017-06-20T02:19:05.044Z,16.7
2017-06-20T02:19:18.502Z,16.76
2017-06-20T02:19:31.894Z,16.74
2017-06-20T02:19:45.293Z,16.72
2017-06-20T02:19:58.692Z,16.74
2017-06-20T02:20:11.057Z,16.69
2017-06-20T02:20:23.971Z,16.67
2017-06-20T02:20:36.812Z,16.76
2017-06-20T02:20:50.294Z,16.66
2017-06-20T02:21:02.747Z,16.72
2017-06-20T02:21:16.158Z,16.69
2017-06-20T02:21:29.532Z,16.55
2017-06-20T02:21:41.588Z,16.72
2017-06-20T02:21:55.033Z,16.69
2017-06-20T02:22:07.895Z,16.65
2017-06-20T02:22:21.286Z,16.7
2017-06-20T02:22:34.189Z,16.69
2017-06-20T02:22:47.607Z,16.69
2017-06-20T02:23:01.085Z,16.69
2017-06-20T02:23:14.517Z,16.66
2017-06-20T02:23:27.975Z,16.69
2017-06-20T02:23:41.392Z,16.7
2017-06-20T02:23:54.743Z,16.65
2017-06-20T02:24:08.151Z,16.7
2017-06-20T02:24:21.624Z,16.7
2017-06-20T02:24:35.086Z,16.66
2017-06-20T02:24:48.460Z,16.65
2017-06-20T02:25:01.951Z,16.72
2017-06-20T02:25:15.358Z,16.72
2017-06-20T02:25:28.796Z,16.72
2017-06-20T02:25:41.689Z,16.72
2017-06-20T02:25:55.127Z,16.72
2017-06-20T02:26:08.554Z,16.72
2017-06-20T02:26:21.478Z,16.7
2017-06-20T02:26:34.854Z,16.7
2017-06-20T02:26:48.261Z,16.74
2017-06-20T02:27:01.692Z,16.67
2017-06-20T02:27:15.123Z,16.62
2017-06-20T02:27:28.518Z,16.8
2017-06-20T02:27:41.892Z,16.73
2017-06-20T02:27:55.340Z,16.69
2017-06-20T02:28:08.749Z,16.7
2017-06-20T02:28:21.678Z,16.62
2017-06-20T02:28:35.092Z,16.66
2017-06-20T02:28:48.568Z,16.74
2017-06-20T02:29:01.953Z,16.73
2017-06-20T02:29:15.372Z,16.69
2017-06-20T02:29:28.764Z,16.7
2017-06-20T02:29:42.182Z,16.74
2017-06-20T02:29:55.620Z,16.67
2017-06-20T02:30:09.044Z,16.67
2017-06-20T02:30:22.542Z,16.7
2017-06-20T02:30:35.979Z,16.73
2017-06-20T02:30:49.536Z,16.67
2017-06-20T02:31:01.895Z,16.69
2017-06-20T02:31:15.343Z,16.66
2017-06-20T02:31:28.745Z,16.7
2017-06-20T02:31:41.605Z,16.69
2017-06-20T02:31:55.275Z,16.57
2017-06-20T02:32:08.656Z,16.69
2017-06-20T02:32:22.101Z,16.72
2017-06-20T02:32:34.980Z,16.67
2017-06-20T02:32:48.345Z,16.66
2017-06-20T02:33:01.761Z,16.66
2017-06-20T02:33:15.179Z,16.7
2017-06-20T02:33:28.111Z,16.59
2017-06-20T02:33:41.559Z,16.62
2017-06-20T02:33:54.434Z,16.66
2017-06-20T02:34:07.846Z,16.55
2017-06-20T02:34:20.793Z,16.63
2017-06-20T02:34:33.127Z,16.63
2017-06-20T02:34:46.553Z,16.66
2017-06-20T02:34:59.971Z,16.65
2017-06-20T02:35:13.468Z,16.65
2017-06-20T02:35:26.919Z,16.52
2017-06-20T02:35:39.835Z,16.62
2017-06-20T02:35:53.278Z,16.65
2017-06-20T02:36:06.163Z,16.55
2017-06-20T02:36:19.587Z,16.62
2017-06-20T02:36:32.441Z,16.63
2017-06-20T02:36:45.929Z,16.62
2017-06-20T02:36:58.809Z,16.55
2017-06-20T02:37:11.705Z,16.54
2017-06-20T02:37:25.154Z,16.62
2017-06-20T02:37:38.646Z,16.57
2017-06-20T02:37:52.086Z,16.51
2017-06-20T02:38:04.939Z,16.55
2017-06-20T02:38:18.327Z,16.55
2017-06-20T02:38:31.756Z,16.54
2017-06-20T02:38:45.178Z,16.52
2017-06-20T02:38:57.546Z,16.52
2017-06-20T02:39:10.960Z,16.54
2017-06-20T02:39:23.911Z,16.54
2017-06-20T02:39:37.278Z,16.57
2017-06-20T02:39:50.732Z,16.58
2017-06-20T02:40:04.147Z,16.57
2017-06-20T02:40:17.555Z,16.59
2017-06-20T02:40:30.512Z,16.58
2017-06-20T02:40:43.462Z,16.54
2017-06-20T02:40:56.809Z,16.39
2017-06-20T02:41:10.280Z,16.45
2017-06-20T02:41:23.757Z,16.49
2017-06-20T02:41:36.115Z,16.45
2017-06-20T02:41:49.553Z,16.55
2017-06-20T02:42:02.961Z,16.42
2017-06-20T02:42:16.413Z,16.49
2017-06-20T02:42:29.852Z,16.49
2017-06-20T02:42:43.258Z,16.47
2017-06-20T02:42:56.708Z,16.45
2017-06-20T02:43:10.184Z,16.48
2017-06-20T02:43:23.570Z,16.49
2017-06-20T02:43:35.344Z,16.47
2017-06-20T02:43:48.762Z,16.44
2017-06-20T02:44:01.640Z,16.42
2017-06-20T02:44:15.048Z,16.49
2017-06-20T02:44:28.485Z,16.51
2017-06-20T02:44:41.912Z,16.49
2017-06-20T02:44:55.301Z,16.51
2017-06-20T02:45:08.242Z,16.42
2017-06-20T02:45:21.651Z,16.47
2017-06-20T02:45:35.107Z,16.47
2017-06-20T02:45:48.561Z,16.39
2017-06-20T02:46:01.988Z,16.49
2017-06-20T02:46:14.872Z,16.47
2017-06-20T02:46:28.311Z,16.47
2017-06-20T02:46:41.706Z,16.37
2017-06-20T02:46:55.232Z,16.47
2017-06-20T02:47:08.866Z,16.42
2017-06-20T02:47:22.389Z,16.45
2017-06-20T02:47:35.832Z,16.49
2017-06-20T02:47:49.232Z,16.44
2017-06-20T02:48:02.176Z,16.44
2017-06-20T02:48:15.567Z,16.44
2017-06-20T02:48:28.940Z,16.36
2017-06-20T02:48:42.328Z,16.42
2017-06-20T02:48:55.750Z,16.39
2017-06-20T02:49:09.163Z,16.36
2017-06-20T02:49:22.572Z,16.4
2017-06-20T02:49:36.060Z,16.39
2017-06-20T02:49:49.437Z,16.44
2017-06-20T02:50:02.320Z,16.4
2017-06-20T02:50:16.019Z,16.42
2017-06-20T02:50:29.419Z,16.39
2017-06-20T02:50:42.833Z,16.29
2017-06-20T02:50:56.303Z,16.3
2017-06-20T02:51:09.759Z,16.39